createdAt,value
2023-03-23T15:58:17.905Z,99405.88
2023-03-23T16:00:46.534Z,99410.28
2023-03-23T16:03:24.353Z,99412.16
2023-03-23T16:05:52.037Z,99401.16
2023-03-23T16:08:19.089Z,99412.38
2023-03-23T16:10:46.449Z,99408.13
2023-03-23T16:13:13.506Z,99413.44
2023-03-23T16:15:41.118Z,99413.56
2023-03-23T16:18:16.236Z,99418.75
2023-03-23T16:20:43.844Z,99418.88
2023-03-23T16:23:11.132Z,99419.81
2023-03-23T16:25:41.048Z,99415.47
2023-03-23T16:28:12.255Z,99405.19
2023-03-23T16:30:40.066Z,99415.66
2023-03-23T16:33:07.381Z,99390.19
2023-03-23T16:35:35.923Z,99424.25
2023-03-23T16:38:07.518Z,99422.56
2023-03-23T16:40:37.973Z,99420.97
2023-03-23T16:43:08.643Z,99422.78
2023-03-23T16:45:40.021Z,99431.47
2023-03-23T16:48:09.906Z,99429.88
2023-03-23T16:50:38.135Z,99430.75
2023-03-23T16:53:08.355Z,99424.81
2023-03-23T16:55:36.251Z,99427.44
2023-03-23T17:00:34.572Z,99430.16
2023-03-23T17:03:02.126Z,99433.66
2023-03-23T17:05:30.089Z,99433.75
2023-03-23T17:07:57.936Z,99440.59
2023-03-23T17:10:27.856Z,99430.34
2023-03-23T17:12:55.956Z,99433.75
2023-03-23T17:15:25.713Z,99437.34
2023-03-23T17:17:54.023Z,99441.75
2023-03-23T17:20:21.622Z,99446.97
2023-03-23T17:22:48.790Z,99447.84
2023-03-23T17:25:15.935Z,99444.44
2023-03-23T17:27:43.148Z,99451.34
2023-03-23T17:30:11.346Z,99446.16
2023-03-23T17:32:39.250Z,99446.25
2023-03-23T17:35:07.118Z,99446.34
2023-03-23T17:37:34.786Z,99446.44
2023-03-23T17:40:01.977Z,99455.13
2023-03-23T17:42:30.171Z,99466.44
2023-03-23T17:44:57.190Z,99434.22
2023-03-23T17:47:24.277Z,99457.13
2023-03-23T17:49:51.643Z,99463.25
2023-03-23T17:52:18.713Z,99460.72
2023-03-23T17:54:45.889Z,99462.53
2023-03-23T17:57:12.859Z,99438.34
2023-03-23T17:59:40.028Z,99440.97
2023-03-23T18:02:07.469Z,99432.44
2023-03-23T18:04:34.605Z,99429.13
2023-03-23T18:07:01.697Z,99448.09
2023-03-23T18:09:28.916Z,99449.09
2023-03-23T18:11:56.899Z,99467.97
2023-03-23T18:14:24.090Z,99466.28
2023-03-23T18:16:51.199Z,99474.19
2023-03-23T18:19:18.494Z,99478.47
2023-03-23T18:21:46.126Z,99473.44
2023-03-23T18:24:13.599Z,99468.38
2023-03-23T18:26:41.406Z,99473.47
2023-03-23T18:29:08.381Z,99481.34
2023-03-23T18:31:40.143Z,99487.41
2023-03-23T18:34:07.819Z,99487.50
2023-03-23T18:36:34.955Z,99497.00
2023-03-23T18:39:02.568Z,99482.31
2023-03-23T18:41:29.806Z,99477.13
2023-03-23T18:43:57.802Z,99469.53
2023-03-23T18:46:25.651Z,99480.63
2023-03-23T18:48:52.874Z,99480.72
2023-03-23T18:51:20.045Z,99485.91
2023-03-23T18:53:47.074Z,99472.22
2023-03-23T18:56:17.388Z,99487.81
2023-03-23T18:58:44.976Z,99491.47
2023-03-23T19:01:16.230Z,99489.88
2023-03-23T19:03:43.910Z,99501.94
2023-03-23T19:06:16.813Z,99514.09
2023-03-23T19:08:45.458Z,99498.63
2023-03-23T19:11:13.416Z,99498.53
2023-03-23T19:13:47.062Z,99483.06
2023-03-23T19:16:22.055Z,99488.34
2023-03-23T19:18:49.444Z,99491.13
2023-03-23T19:21:19.712Z,99493.72
2023-03-23T19:23:49.723Z,99469.66
2023-03-23T19:26:24.006Z,99462.78
2023-03-23T19:31:25.046Z,99456.88
2023-03-23T19:33:53.550Z,99466.63
2023-03-23T19:36:23.024Z,99469.97
2023-03-23T19:38:50.883Z,99475.16
2023-03-23T19:41:19.197Z,99485.63
2023-03-23T19:43:46.839Z,99487.44
2023-03-23T19:46:14.638Z,99493.47
2023-03-23T19:48:41.951Z,99494.41
2023-03-23T19:51:11.499Z,99496.19
2023-03-23T19:53:39.587Z,99499.59
2023-03-23T19:56:12.773Z,99505.69
2023-03-23T19:58:39.993Z,99506.63
2023-03-23T20:01:07.772Z,99488.00
2023-03-23T20:03:36.240Z,99524.88
2023-03-23T20:06:11.126Z,99540.34
2023-03-23T20:08:43.800Z,99527.53
2023-03-23T20:11:13.569Z,99527.63
2023-03-23T20:13:41.601Z,99525.13
2023-03-23T20:16:09.565Z,99531.31
2023-03-23T20:18:38.125Z,99534.19
2023-03-23T20:21:11.563Z,99552.50
2023-03-23T20:23:39.739Z,99538.81
2023-03-23T20:26:13.338Z,99547.56
2023-03-23T20:28:40.873Z,99551.91
2023-03-23T20:31:21.149Z,99562.34
2023-03-23T20:34:08.679Z,99564.19
2023-03-23T20:36:42.388Z,99558.28
2023-03-23T20:39:12.787Z,99554.78
2023-03-23T20:41:40.547Z,99557.47
2023-03-23T20:44:14.240Z,99566.94
2023-03-23T20:46:47.893Z,99563.53
2023-03-23T20:49:16.081Z,99568.72
2023-03-23T20:51:43.872Z,99567.06
2023-03-23T20:54:14.258Z,99569.72
2023-03-23T20:56:42.579Z,99569.06
2023-03-23T20:59:10.180Z,99548.56
2023-03-23T21:01:40.108Z,99562.34
2023-03-23T21:04:15.087Z,99564.09
2023-03-23T21:06:43.931Z,99563.44
2023-03-23T21:09:11.725Z,99554.84
2023-03-23T21:11:39.394Z,99565.25
2023-03-23T21:14:06.846Z,99555.84
2023-03-23T21:16:34.390Z,99540.47
2023-03-23T21:19:02.532Z,99553.47
2023-03-23T21:21:29.632Z,99554.41
2023-03-23T21:23:57.694Z,99554.41
2023-03-23T21:26:29.030Z,99563.13
2023-03-23T21:29:00.046Z,99563.22
2023-03-23T21:31:33.366Z,99558.91
2023-03-23T21:34:01.422Z,99558.03
2023-03-23T21:36:29.410Z,99570.13
2023-03-23T21:38:56.882Z,99569.28
2023-03-23T21:41:24.541Z,99563.28
2023-03-23T21:43:51.892Z,99557.25
2023-03-23T21:46:19.151Z,99559.88
2023-03-23T21:48:51.720Z,99554.69
2023-03-23T21:51:24.521Z,99558.09
2023-03-23T21:53:54.455Z,99561.56
2023-03-23T21:56:23.945Z,99565.88
2023-03-23T21:58:51.760Z,99575.38
2023-03-23T22:01:19.524Z,99568.53
2023-03-23T22:03:47.068Z,99565.03
2023-03-23T22:06:21.241Z,99573.69
2023-03-23T22:08:48.337Z,99561.63
2023-03-23T22:11:18.909Z,99566.78
2023-03-23T22:13:46.650Z,99579.84
2023-03-23T22:16:17.880Z,99579.88
2023-03-23T22:18:46.515Z,99585.13
2023-03-23T22:21:15.654Z,99597.19
2023-03-23T22:23:44.281Z,99590.34
2023-03-23T22:26:12.538Z,99593.03
2023-03-23T22:28:40.595Z,99592.22
2023-03-23T22:31:13.099Z,99605.22
2023-03-23T22:33:40.546Z,99600.97
2023-03-23T22:36:08.445Z,99601.13
2023-03-23T22:38:37.504Z,99603.78
2023-03-23T22:41:07.170Z,99603.78
2023-03-23T22:43:35.645Z,99588.41
2023-03-23T22:46:03.334Z,99601.47
2023-03-23T22:48:31.078Z,99575.03
2023-03-23T22:50:58.703Z,99592.94
2023-03-23T22:53:26.018Z,99587.00
2023-03-23T22:55:55.719Z,99588.59
2023-03-23T22:58:23.363Z,99598.94
2023-03-23T23:00:59.590Z,99598.03
2023-03-23T23:03:27.938Z,99599.00
2023-03-23T23:05:56.618Z,99587.25
2023-03-23T23:08:25.146Z,99592.41
2023-03-23T23:10:54.813Z,99592.53
2023-03-23T23:13:22.629Z,99586.63
2023-03-23T23:15:52.541Z,99594.38
2023-03-23T23:18:20.712Z,99585.84
2023-03-23T23:20:54.877Z,99585.97
2023-03-23T23:23:24.033Z,99584.28
2023-03-23T23:25:52.357Z,99565.41
2023-03-23T23:28:20.867Z,99556.91
2023-03-23T23:30:48.686Z,99557.91
2023-03-23T23:33:16.188Z,99564.03
2023-03-23T23:35:43.319Z,99575.34
2023-03-23T23:38:12.746Z,99563.47
2023-03-23T23:40:44.306Z,99569.56
2023-03-23T23:43:13.458Z,99566.22
2023-03-23T23:45:41.014Z,99570.50
2023-03-23T23:48:08.612Z,99567.97
2023-03-23T23:50:36.462Z,99571.34
2023-03-23T23:53:05.039Z,99561.91
2023-03-23T23:55:32.640Z,99564.41
2023-03-23T23:57:59.851Z,99562.75
